Kurpie — C6XM4 — position and weather

sailwx.info

Track history (hours):
 
Tides and Currents Weather Stations Pressure Air Temp Water Temp Dewpoint Dewpoint Depression Visibility Wind Speed Wind Dir Waves Ship Positions

Kurpie

Last reported at 2018-May-05 16:46 UTC. Time now 2018-Jun-19 04:22 UTC.
Position N 53°35' W 011°16'.
Warning: this ship's position is 44 days out of date.

Length 190 m; draft 9.9 m.

Type: Cargo ship. MMSI: 311013900.

Date/timePositionNaut miles runAvg speedWind from/ knotsBaromVisibWave heightAir tempDewpointWater temp
2018-May-05 16:46N 53°35' W 011°16'310.4
2018-May-05 16:30N 53°37' W 011°14'510.3
2018-May-05 16:00N 53°42' W 011°12'510.2
2018-May-05 15:29N 53°47' W 011°09'510.1
2018-May-05 15:00N 53°52' W 011°06'5 9.9
2018-May-05 14:30N 53°56' W 011°04'5 9.9
2018-May-05 14:00N 54°01' W 011°01'5 9.5
2018-May-05 13:30N 54°06' W 010°59'5 9.8
2018-May-05 13:00N 54°10' W 010°56'5 9.7
2018-May-05 12:30N 54°15' W 010°53'5 9.6
2018-May-05 11:58N 54°20' W 010°51'5 9.5
2018-May-05 11:28N 54°24' W 010°47'5 9.5
2018-May-05 10:57N 54°29' W 010°44'6 9.3
2018-May-05 10:22N 54°34' W 010°41'3 9.3
2018-May-05 10:00N 54°37' W 010°38'  
2018-Apr-28 17:53N 69°04' E 033°06'2 6.3
2018-Apr-28 17:30N 69°01' E 033°03'2 3.0
2018-Apr-28 16:55N 68°60' E 033°03'0 0.0
2018-Apr-28 16:28N 68°60' E 033°03'0 0.0
2018-Apr-28 15:58N 68°60' E 033°03'0 0.0
2018-Apr-28 15:25N 68°60' E 033°03'0 0.0
2018-Apr-28 14:58N 68°60' E 033°03'0 0.0
2018-Apr-28 14:28N 68°60' E 033°03'0 0.0
2018-Apr-28 13:58N 68°60' E 033°03'0 0.0
2018-Apr-28 13:28N 68°60' E 033°03'0 0.0
2018-Apr-28 12:58N 68°60' E 033°03'0 0.0
2018-Apr-28 12:28N 68°60' E 033°03'0 0.0
2018-Apr-28 11:58N 68°60' E 033°03'0 0.0
2018-Apr-28 11:28N 68°60' E 033°03'0 0.0
2018-Apr-28 10:58N 68°60' E 033°03'0 0.0
2018-Apr-28 10:28N 68°60' E 033°03'0 0.0
2018-Apr-28 09:58N 68°60' E 033°03'0 0.0
2018-Apr-28 09:28N 68°60' E 033°03'0 0.0
2018-Apr-28 08:58N 68°60' E 033°03'0 0.0
2018-Apr-28 08:28N 68°60' E 033°03'0 0.0
2018-Apr-28 07:58N 68°60' E 033°03'0 0.0
2018-Apr-28 07:28N 68°60' E 033°03'0 0.0
2018-Apr-28 06:58N 68°60' E 033°03'0 0.0
2018-Apr-28 06:28N 68°60' E 033°03'0 0.0
2018-Apr-28 05:58N 68°60' E 033°03'0 0.0
2018-Apr-28 05:28N 68°60' E 033°03'0 0.0
2018-Apr-28 04:58N 68°60' E 033°03'0 0.0
2018-Apr-28 04:28N 68°60' E 033°03'0 0.0
2018-Apr-28 03:58N 68°60' E 033°03'0 0.0
2018-Apr-28 03:28N 68°60' E 033°03'0 0.0
2018-Apr-28 02:58N 68°60' E 033°03'0 0.0
2018-Apr-28 02:28N 68°60' E 033°03'0 0.0
2018-Apr-28 01:58N 68°60' E 033°03'0 0.0
2018-Apr-28 01:28N 68°60' E 033°03'0 0.0
2018-Apr-28 00:58N 68°60' E 033°03'0 0.0
2018-Apr-28 00:28N 68°60' E 033°03'0 0.0
2018-Apr-27 23:58N 68°60' E 033°03'0 0.0
2018-Apr-27 23:28N 68°60' E 033°03'0 0.0
2018-Apr-27 22:58N 68°60' E 033°03'0 0.0
2018-Apr-27 22:28N 68°60' E 033°03'0 0.0
2018-Apr-27 21:58N 68°60' E 033°03'0 0.0
2018-Apr-27 21:28N 68°60' E 033°03'0 0.0
2018-Apr-27 20:58N 68°60' E 033°03'0 0.0
2018-Apr-27 20:28N 68°60' E 033°03'0 0.0
2018-Apr-27 19:58N 68°60' E 033°03'0 0.0
2018-Apr-27 19:28N 68°60' E 033°03'0 0.0
2018-Apr-27 18:58N 68°60' E 033°03'0 0.0
2018-Apr-27 18:28N 68°60' E 033°03'0 0.0
2018-Apr-27 17:58N 68°60' E 033°03'0 0.0
2018-Apr-27 17:28N 68°60' E 033°03'0 0.0
2018-Apr-27 16:58N 68°60' E 033°03'0 0.0
2018-Apr-27 16:28N 68°60' E 033°03'0 0.0
2018-Apr-27 15:58N 68°60' E 033°03'0 0.0
2018-Apr-27 15:28N 68°60' E 033°03'0 0.0
2018-Apr-27 14:58N 68°60' E 033°03'0 0.0
2018-Apr-27 14:28N 68°60' E 033°03'0 0.0
2018-Apr-27 13:58N 68°60' E 033°03'0 0.0
2018-Apr-27 13:28N 68°60' E 033°03'0 0.0
2018-Apr-27 12:58N 68°60' E 033°03'0 0.0
2018-Apr-27 12:28N 68°60' E 033°03'0 0.0
2018-Apr-27 11:58N 68°60' E 033°03'0 0.0
2018-Apr-27 11:28N 68°60' E 033°03'0 0.0
2018-Apr-27 10:58N 68°60' E 033°03'0 0.0
2018-Apr-27 10:28N 68°60' E 033°03'0 0.0
2018-Apr-27 09:58N 68°60' E 033°03'0 0.0
2018-Apr-27 09:28N 68°60' E 033°03'0 0.0
2018-Apr-27 08:58N 68°60' E 033°03'0 0.0
2018-Apr-27 08:28N 68°60' E 033°03'0 0.0
2018-Apr-27 07:58N 68°60' E 033°03'0 0.0
2018-Apr-27 07:28N 68°60' E 033°03'0 0.0
2018-Apr-27 06:58N 68°60' E 033°03'0 0.0
2018-Apr-27 06:28N 68°60' E 033°03'0 0.0
2018-Apr-27 05:55N 68°60' E 033°03'0 0.0
2018-Apr-27 05:28N 68°60' E 033°03'0 0.0
2018-Apr-27 04:58N 68°60' E 033°03'0 0.0
2018-Apr-27 04:28N 68°60' E 033°03'0 0.0
2018-Apr-27 03:58N 68°60' E 033°03'0 0.0
2018-Apr-27 03:28N 68°60' E 033°03'0 0.0
2018-Apr-27 02:58N 68°60' E 033°03'0 0.0
2018-Apr-27 02:28N 68°60' E 033°03'0 0.0
2018-Apr-27 01:58N 68°60' E 033°03'0 0.0
2018-Apr-27 01:28N 68°60' E 033°03'0 0.0
2018-Apr-27 00:58N 68°60' E 033°03'0 0.0
2018-Apr-27 00:28N 68°60' E 033°03'0 0.0
2018-Apr-26 23:58N 68°60' E 033°03'0 0.0
2018-Apr-26 23:28N 68°60' E 033°03'0 0.0
2018-Apr-26 22:58N 68°60' E 033°03'0 0.0
2018-Apr-26 22:28N 68°60' E 033°03'0 0.0
2018-Apr-26 21:58N 68°60' E 033°03'0 0.0
2018-Apr-26 21:28N 68°60' E 033°03'0 0.0
2018-Apr-26 20:58N 68°60' E 033°03'0 0.0
2018-Apr-26 20:25N 68°60' E 033°03'0 0.0
2018-Apr-26 19:58N 68°60' E 033°03'0 0.0
2018-Apr-26 19:28N 68°60' E 033°03'0 0.0
2018-Apr-26 18:58N 68°60' E 033°03'0 0.0
2018-Apr-26 18:28N 68°60' E 033°03'0 0.0
2018-Apr-26 17:58N 68°60' E 033°03'0 0.0
2018-Apr-26 17:28N 68°60' E 033°03'0 0.0
2018-Apr-26 16:58N 68°60' E 033°03'0 0.0
2018-Apr-26 16:25N 68°60' E 033°03'0 0.0
2018-Apr-26 15:58N 68°60' E 033°03'0 0.0
2018-Apr-26 15:28N 68°60' E 033°03'0 0.0
2018-Apr-26 14:58N 68°60' E 033°03'0 0.0
2018-Apr-26 14:28N 68°60' E 033°03'0 0.0
2018-Apr-26 13:58N 68°60' E 033°03'0 0.0
2018-Apr-26 13:28N 68°60' E 033°03'0 0.0
2018-Apr-26 12:58N 68°60' E 033°03'0 0.0
2018-Apr-26 12:28N 68°60' E 033°03'0 0.0
2018-Apr-26 11:58N 68°60' E 033°03'0 0.0
2018-Apr-26 11:28N 68°60' E 033°03'0 0.0
2018-Apr-26 10:58N 68°60' E 033°03'0 0.0
2018-Apr-26 10:28N 68°60' E 033°03'0 0.0
2018-Apr-26 09:58N 68°60' E 033°03'0 0.0
2018-Apr-26 09:25N 68°60' E 033°03'0 0.0
2018-Apr-26 08:58N 68°60' E 033°03'0 0.0
2018-Apr-26 08:28N 68°60' E 033°03'0 0.0
2018-Apr-26 07:58N 68°60' E 033°03'0 0.0
2018-Apr-26 07:28N 68°60' E 033°03'0 0.0
2018-Apr-26 06:58N 68°60' E 033°03'0 0.0
2018-Apr-26 06:28N 68°60' E 033°03'0 0.0
2018-Apr-26 05:58N 68°60' E 033°03'0 0.0
2018-Apr-26 05:28N 68°60' E 033°03'0 0.0
2018-Apr-26 04:58N 68°60' E 033°03'0 0.0
2018-Apr-26 04:28N 68°60' E 033°03'0 0.0
2018-Apr-26 03:58N 68°60' E 033°03'0 0.0
2018-Apr-26 03:28N 68°60' E 033°03'0 0.0
2018-Apr-26 02:58N 68°60' E 033°03'0 0.0
2018-Apr-26 02:28N 68°60' E 033°03'0 0.0
2018-Apr-26 01:58N 68°60' E 033°03'0 0.0
2018-Apr-26 01:28N 68°60' E 033°03'0 0.0
2018-Apr-26 00:58N 68°60' E 033°03'0 0.0
2018-Apr-26 00:28N 68°60' E 033°03'0 0.0
2018-Apr-25 23:58N 68°60' E 033°03'0 0.0
2018-Apr-25 23:28N 68°60' E 033°03'0 0.0
2018-Apr-25 22:58N 68°60' E 033°03'0 0.0
2018-Apr-25 22:28N 68°60' E 033°03'0 0.0
2018-Apr-25 21:58N 68°60' E 033°03'0 0.0
2018-Apr-25 21:28N 68°60' E 033°03'0 0.0
2018-Apr-25 20:58N 68°60' E 033°03'0 0.0
2018-Apr-25 20:28N 68°60' E 033°03'0 0.0
2018-Apr-25 19:58N 68°60' E 033°03'0 0.0
2018-Apr-25 19:28N 68°60' E 033°03'0 0.0
2018-Apr-25 18:58N 68°60' E 033°03'0 0.0
2018-Apr-25 18:28N 68°60' E 033°03'0 0.0
2018-Apr-25 17:55N 68°60' E 033°03'0 0.0
2018-Apr-25 17:28N 68°60' E 033°03'0 0.0
2018-Apr-25 16:58N 68°60' E 033°03'  
Track history (hours):
 
Tides and Currents Weather Stations Pressure Air Temp Water Temp Dewpoint Dewpoint Depression Visibility Wind Speed Wind Dir Waves Ship Positions

Kurpie

Last reported at 2018-May-05 16:46 UTC. Time now 2018-Jun-19 04:22 UTC.
Position N 53°35' W 011°16'.
Warning: this ship's position is 44 days out of date.

Length 190 m; draft 9.9 m.

Type: Cargo ship. MMSI: 311013900.

Date/timePositionNaut miles runAvg speedWind from/ knotsBaromVisibWave heightAir tempDewpointWater temp
2018-May-05 16:46N 53°35' W 011°16'310.4
2018-May-05 16:30N 53°37' W 011°14'510.3
2018-May-05 16:00N 53°42' W 011°12'510.2
2018-May-05 15:29N 53°47' W 011°09'510.1
2018-May-05 15:00N 53°52' W 011°06'5 9.9
2018-May-05 14:30N 53°56' W 011°04'5 9.9
2018-May-05 14:00N 54°01' W 011°01'5 9.5
2018-May-05 13:30N 54°06' W 010°59'5 9.8
2018-May-05 13:00N 54°10' W 010°56'5 9.7
2018-May-05 12:30N 54°15' W 010°53'5 9.6
2018-May-05 11:58N 54°20' W 010°51'5 9.5
2018-May-05 11:28N 54°24' W 010°47'5 9.5
2018-May-05 10:57N 54°29' W 010°44'6 9.3
2018-May-05 10:22N 54°34' W 010°41'3 9.3
2018-May-05 10:00N 54°37' W 010°38'  
2018-Apr-28 17:53N 69°04' E 033°06'2 6.3
2018-Apr-28 17:30N 69°01' E 033°03'2 3.0
2018-Apr-28 16:55N 68°60' E 033°03'0 0.0
2018-Apr-28 16:28N 68°60' E 033°03'0 0.0
2018-Apr-28 15:58N 68°60' E 033°03'0 0.0
2018-Apr-28 15:25N 68°60' E 033°03'0 0.0
2018-Apr-28 14:58N 68°60' E 033°03'0 0.0
2018-Apr-28 14:28N 68°60' E 033°03'0 0.0
2018-Apr-28 13:58N 68°60' E 033°03'0 0.0
2018-Apr-28 13:28N 68°60' E 033°03'0 0.0
2018-Apr-28 12:58N 68°60' E 033°03'0 0.0
2018-Apr-28 12:28N 68°60' E 033°03'0 0.0
2018-Apr-28 11:58N 68°60' E 033°03'0 0.0
2018-Apr-28 11:28N 68°60' E 033°03'0 0.0
2018-Apr-28 10:58N 68°60' E 033°03'0 0.0
2018-Apr-28 10:28N 68°60' E 033°03'0 0.0
2018-Apr-28 09:58N 68°60' E 033°03'0 0.0
2018-Apr-28 09:28N 68°60' E 033°03'0 0.0
2018-Apr-28 08:58N 68°60' E 033°03'0 0.0
2018-Apr-28 08:28N 68°60' E 033°03'0 0.0
2018-Apr-28 07:58N 68°60' E 033°03'0 0.0
2018-Apr-28 07:28N 68°60' E 033°03'0 0.0
2018-Apr-28 06:58N 68°60' E 033°03'0 0.0
2018-Apr-28 06:28N 68°60' E 033°03'0 0.0
2018-Apr-28 05:58N 68°60' E 033°03'0 0.0
2018-Apr-28 05:28N 68°60' E 033°03'0 0.0
2018-Apr-28 04:58N 68°60' E 033°03'0 0.0
2018-Apr-28 04:28N 68°60' E 033°03'0 0.0
2018-Apr-28 03:58N 68°60' E 033°03'0 0.0
2018-Apr-28 03:28N 68°60' E 033°03'0 0.0
2018-Apr-28 02:58N 68°60' E 033°03'0 0.0
2018-Apr-28 02:28N 68°60' E 033°03'0 0.0
2018-Apr-28 01:58N 68°60' E 033°03'0 0.0
2018-Apr-28 01:28N 68°60' E 033°03'0 0.0
2018-Apr-28 00:58N 68°60' E 033°03'0 0.0
2018-Apr-28 00:28N 68°60' E 033°03'0 0.0
2018-Apr-27 23:58N 68°60' E 033°03'0 0.0
2018-Apr-27 23:28N 68°60' E 033°03'0 0.0
2018-Apr-27 22:58N 68°60' E 033°03'0 0.0
2018-Apr-27 22:28N 68°60' E 033°03'0 0.0
2018-Apr-27 21:58N 68°60' E 033°03'0 0.0
2018-Apr-27 21:28N 68°60' E 033°03'0 0.0
2018-Apr-27 20:58N 68°60' E 033°03'0 0.0
2018-Apr-27 20:28N 68°60' E 033°03'0 0.0
2018-Apr-27 19:58N 68°60' E 033°03'0 0.0
2018-Apr-27 19:28N 68°60' E 033°03'0 0.0
2018-Apr-27 18:58N 68°60' E 033°03'0 0.0
2018-Apr-27 18:28N 68°60' E 033°03'0 0.0
2018-Apr-27 17:58N 68°60' E 033°03'0 0.0
2018-Apr-27 17:28N 68°60' E 033°03'0 0.0
2018-Apr-27 16:58N 68°60' E 033°03'0 0.0
2018-Apr-27 16:28N 68°60' E 033°03'0 0.0
2018-Apr-27 15:58N 68°60' E 033°03'0 0.0
2018-Apr-27 15:28N 68°60' E 033°03'0 0.0
2018-Apr-27 14:58N 68°60' E 033°03'0 0.0
2018-Apr-27 14:28N 68°60' E 033°03'0 0.0
2018-Apr-27 13:58N 68°60' E 033°03'0 0.0
2018-Apr-27 13:28N 68°60' E 033°03'0 0.0
2018-Apr-27 12:58N 68°60' E 033°03'0 0.0
2018-Apr-27 12:28N 68°60' E 033°03'0 0.0
2018-Apr-27 11:58N 68°60' E 033°03'0 0.0
2018-Apr-27 11:28N 68°60' E 033°03'0 0.0
2018-Apr-27 10:58N 68°60' E 033°03'0 0.0
2018-Apr-27 10:28N 68°60' E 033°03'0 0.0
2018-Apr-27 09:58N 68°60' E 033°03'0 0.0
2018-Apr-27 09:28N 68°60' E 033°03'0 0.0
2018-Apr-27 08:58N 68°60' E 033°03'0 0.0
2018-Apr-27 08:28N 68°60' E 033°03'0 0.0
2018-Apr-27 07:58N 68°60' E 033°03'0 0.0
2018-Apr-27 07:28N 68°60' E 033°03'0 0.0
2018-Apr-27 06:58N 68°60' E 033°03'0 0.0
2018-Apr-27 06:28N 68°60' E 033°03'0 0.0
2018-Apr-27 05:55N 68°60' E 033°03'0 0.0
2018-Apr-27 05:28N 68°60' E 033°03'0 0.0
2018-Apr-27 04:58N 68°60' E 033°03'0 0.0
2018-Apr-27 04:28N 68°60' E 033°03'0 0.0
2018-Apr-27 03:58N 68°60' E 033°03'0 0.0
2018-Apr-27 03:28N 68°60' E 033°03'0 0.0
2018-Apr-27 02:58N 68°60' E 033°03'0 0.0
2018-Apr-27 02:28N 68°60' E 033°03'0 0.0
2018-Apr-27 01:58N 68°60' E 033°03'0 0.0
2018-Apr-27 01:28N 68°60' E 033°03'0 0.0
2018-Apr-27 00:58N 68°60' E 033°03'0 0.0
2018-Apr-27 00:28N 68°60' E 033°03'0 0.0
2018-Apr-26 23:58N 68°60' E 033°03'0 0.0
2018-Apr-26 23:28N 68°60' E 033°03'0 0.0
2018-Apr-26 22:58N 68°60' E 033°03'0 0.0
2018-Apr-26 22:28N 68°60' E 033°03'0 0.0
2018-Apr-26 21:58N 68°60' E 033°03'0 0.0
2018-Apr-26 21:28N 68°60' E 033°03'0 0.0
2018-Apr-26 20:58N 68°60' E 033°03'0 0.0
2018-Apr-26 20:25N 68°60' E 033°03'0 0.0
2018-Apr-26 19:58N 68°60' E 033°03'0 0.0
2018-Apr-26 19:28N 68°60' E 033°03'0 0.0
2018-Apr-26 18:58N 68°60' E 033°03'0 0.0
2018-Apr-26 18:28N 68°60' E 033°03'0 0.0
2018-Apr-26 17:58N 68°60' E 033°03'0 0.0
2018-Apr-26 17:28N 68°60' E 033°03'0 0.0
2018-Apr-26 16:58N 68°60' E 033°03'0 0.0
2018-Apr-26 16:25N 68°60' E 033°03'0 0.0
2018-Apr-26 15:58N 68°60' E 033°03'0 0.0
2018-Apr-26 15:28N 68°60' E 033°03'0 0.0
2018-Apr-26 14:58N 68°60' E 033°03'0 0.0
2018-Apr-26 14:28N 68°60' E 033°03'0 0.0
2018-Apr-26 13:58N 68°60' E 033°03'0 0.0
2018-Apr-26 13:28N 68°60' E 033°03'0 0.0
2018-Apr-26 12:58N 68°60' E 033°03'0 0.0
2018-Apr-26 12:28N 68°60' E 033°03'0 0.0
2018-Apr-26 11:58N 68°60' E 033°03'0 0.0
2018-Apr-26 11:28N 68°60' E 033°03'0 0.0
2018-Apr-26 10:58N 68°60' E 033°03'0 0.0
2018-Apr-26 10:28N 68°60' E 033°03'0 0.0
2018-Apr-26 09:58N 68°60' E 033°03'0 0.0
2018-Apr-26 09:25N 68°60' E 033°03'0 0.0
2018-Apr-26 08:58N 68°60' E 033°03'0 0.0
2018-Apr-26 08:28N 68°60' E 033°03'0 0.0
2018-Apr-26 07:58N 68°60' E 033°03'0 0.0
2018-Apr-26 07:28N 68°60' E 033°03'0 0.0
2018-Apr-26 06:58N 68°60' E 033°03'0 0.0
2018-Apr-26 06:28N 68°60' E 033°03'0 0.0
2018-Apr-26 05:58N 68°60' E 033°03'0 0.0
2018-Apr-26 05:28N 68°60' E 033°03'0 0.0
2018-Apr-26 04:58N 68°60' E 033°03'0 0.0
2018-Apr-26 04:28N 68°60' E 033°03'0 0.0
2018-Apr-26 03:58N 68°60' E 033°03'0 0.0
2018-Apr-26 03:28N 68°60' E 033°03'0 0.0
2018-Apr-26 02:58N 68°60' E 033°03'0 0.0
2018-Apr-26 02:28N 68°60' E 033°03'0 0.0
2018-Apr-26 01:58N 68°60' E 033°03'0 0.0
2018-Apr-26 01:28N 68°60' E 033°03'0 0.0
2018-Apr-26 00:58N 68°60' E 033°03'0 0.0
2018-Apr-26 00:28N 68°60' E 033°03'0 0.0
2018-Apr-25 23:58N 68°60' E 033°03'0 0.0
2018-Apr-25 23:28N 68°60' E 033°03'0 0.0
2018-Apr-25 22:58N 68°60' E 033°03'0 0.0
2018-Apr-25 22:28N 68°60' E 033°03'0 0.0
2018-Apr-25 21:58N 68°60' E 033°03'0 0.0
2018-Apr-25 21:28N 68°60' E 033°03'0 0.0
2018-Apr-25 20:58N 68°60' E 033°03'0 0.0
2018-Apr-25 20:28N 68°60' E 033°03'0 0.0
2018-Apr-25 19:58N 68°60' E 033°03'0 0.0
2018-Apr-25 19:28N 68°60' E 033°03'0 0.0
2018-Apr-25 18:58N 68°60' E 033°03'0 0.0
2018-Apr-25 18:28N 68°60' E 033°03'0 0.0
2018-Apr-25 17:55N 68°60' E 033°03'0 0.0
2018-Apr-25 17:28N 68°60' E 033°03'0 0.0
2018-Apr-25 16:58N 68°60' E 033°03'  

Dump ship's entire track history